sensor_id;sensor_type;location;lat;lon;timestamp;pressure;altitude;pressure_sealevel;temperature;humidity
20825;BME280;10573;50.936;6.978;2023-11-21T00:01:56;100586.72;;;11.53;74.63
20825;BME280;10573;50.936;6.978;2023-11-21T00:04:22;100599.59;;;11.61;74.63
20825;BME280;10573;50.936;6.978;2023-11-21T00:06:47;100597.66;;;11.25;75.22
20825;BME280;10573;50.936;6.978;2023-11-21T00:09:14;100597.16;;;11.39;75.13
20825;BME280;10573;50.936;6.978;2023-11-21T00:11:44;100599.19;;;11.37;75.36
20825;BME280;10573;50.936;6.978;2023-11-21T00:14:13;100603.63;;;11.56;75.08
20825;BME280;10573;50.936;6.978;2023-11-21T00:16:40;100608.47;;;11.63;74.72
20825;BME280;10573;50.936;6.978;2023-11-21T00:19:06;100608.16;;;11.48;75.53
20825;BME280;10573;50.936;6.978;2023-11-21T00:21:31;100606.13;;;11.68;74.65
20825;BME280;10573;50.936;6.978;2023-11-21T00:23:57;100602.75;;;11.56;74.82
20825;BME280;10573;50.936;6.978;2023-11-21T00:26:22;100604.81;;;11.54;74.88
20825;BME280;10573;50.936;6.978;2023-11-21T00:28:50;100602.69;;;11.48;75.01
20825;BME280;10573;50.936;6.978;2023-11-21T00:31:15;100602.94;;;11.36;75.36
20825;BME280;10573;50.936;6.978;2023-11-21T00:33:41;100608.31;;;11.46;75.40
20825;BME280;10573;50.936;6.978;2023-11-21T00:36:06;100621.00;;;11.37;76.04
20825;BME280;10573;50.936;6.978;2023-11-21T00:38:35;100616.16;;;11.31;75.81
20825;BME280;10573;50.936;6.978;2023-11-21T00:41:00;100626.88;;;11.61;74.79
20825;BME280;10573;50.936;6.978;2023-11-21T00:43:26;100622.59;;;11.58;74.93
20825;BME280;10573;50.936;6.978;2023-11-21T00:45:51;100626.00;;;11.60;75.29
20825;BME280;10573;50.936;6.978;2023-11-21T00:48:16;100624.66;;;11.64;75.20
20825;BME280;10573;50.936;6.978;2023-11-21T00:50:43;100629.44;;;11.62;75.21
20825;BME280;10573;50.936;6.978;2023-11-21T00:53:09;100625.16;;;11.59;75.26
20825;BME280;10573;50.936;6.978;2023-11-21T00:55:34;100625.22;;;11.68;75.19
20825;BME280;10573;50.936;6.978;2023-11-21T00:58:00;100632.50;;;11.59;75.26
20825;BME280;10573;50.936;6.978;2023-11-21T01:00:28;100628.50;;;11.71;74.85
20825;BME280;10573;50.936;6.978;2023-11-21T01:02:53;100627.97;;;11.50;75.70
20825;BME280;10573;50.936;6.978;2023-11-21T01:05:19;100635.94;;;11.33;76.22
20825;BME280;10573;50.936;6.978;2023-11-21T01:07:45;100637.06;;;11.40;75.87
20825;BME280;10573;50.936;6.978;2023-11-21T01:10:10;100628.56;;;11.44;75.88
20825;BME280;10573;50.936;6.978;2023-11-21T01:12:39;100639.72;;;11.50;75.68
20825;BME280;10573;50.936;6.978;2023-11-21T01:15:05;100641.19;;;11.45;75.91
20825;BME280;10573;50.936;6.978;2023-11-21T01:17:34;100643.31;;;11.51;75.96
20825;BME280;10573;50.936;6.978;2023-11-21T01:20:01;100651.00;;;11.37;75.51
20825;BME280;10573;50.936;6.978;2023-11-21T01:22:26;100658.63;;;11.34;75.83
20825;BME280;10573;50.936;6.978;2023-11-21T01:24:53;100662.00;;;11.46;75.95
20825;BME280;10573;50.936;6.978;2023-11-21T01:27:19;100657.16;;;11.39;75.74
20825;BME280;10573;50.936;6.978;2023-11-21T01:29:44;100664.66;;;11.37;76.03
20825;BME280;10573;50.936;6.978;2023-11-21T01:32:10;100658.47;;;11.35;75.79
20825;BME280;10573;50.936;6.978;2023-11-21T01:34:36;100663.53;;;11.30;76.37
20825;BME280;10573;50.936;6.978;2023-11-21T01:37:01;100660.88;;;11.38;75.71
20825;BME280;10573;50.936;6.978;2023-11-21T01:39:30;100663.63;;;11.38;75.65
20825;BME280;10573;50.936;6.978;2023-11-21T01:41:55;100662.63;;;11.39;75.66
20825;BME280;10573;50.936;6.978;2023-11-21T01:44:24;100666.34;;;11.38;75.58
20825;BME280;10573;50.936;6.978;2023-11-21T01:46:50;100663.47;;;11.40;75.60
20825;BME280;10573;50.936;6.978;2023-11-21T01:49:17;100662.41;;;11.51;75.80
20825;BME280;10573;50.936;6.978;2023-11-21T01:51:45;100664.03;;;11.44;75.28
20825;BME280;10573;50.936;6.978;2023-11-21T01:54:12;100672.72;;;11.29;75.51
20825;BME280;10573;50.936;6.978;2023-11-21T01:56:37;100671.72;;;11.30;75.81
20825;BME280;10573;50.936;6.978;2023-11-21T01:59:04;100678.03;;;11.31;75.35
20825;BME280;10573;50.936;6.978;2023-11-21T02:01:30;100681.31;;;11.34;75.48
20825;BME280;10573;50.936;6.978;2023-11-21T02:03:56;100677.41;;;11.37;75.20
20825;BME280;10573;50.936;6.978;2023-11-21T02:06:21;100675.41;;;11.39;75.35
20825;BME280;10573;50.936;6.978;2023-11-21T02:08:47;100676.84;;;11.33;75.20
20825;BME280;10573;50.936;6.978;2023-11-21T02:11:12;100683.44;;;11.40;74.57
20825;BME280;10573;50.936;6.978;2023-11-21T02:13:38;100687.63;;;11.35;74.74
20825;BME280;10573;50.936;6.978;2023-11-21T02:16:11;100685.19;;;11.32;74.95
20825;BME280;10573;50.936;6.978;2023-11-21T02:18:39;100697.13;;;11.31;75.16
20825;BME280;10573;50.936;6.978;2023-11-21T02:21:04;100694.84;;;11.26;74.88
20825;BME280;10573;50.936;6.978;2023-11-21T02:23:30;100695.44;;;11.20;75.10
20825;BME280;10573;50.936;6.978;2023-11-21T02:25:56;100705.53;;;11.10;75.65
20825;BME280;10573;50.936;6.978;2023-11-21T02:28:21;100698.88;;;11.22;75.49
20825;BME280;10573;50.936;6.978;2023-11-21T02:30:51;100693.75;;;11.19;75.52
20825;BME280;10573;50.936;6.978;2023-11-21T02:33:21;100704.34;;;11.22;75.39
20825;BME280;10573;50.936;6.978;2023-11-21T02:35:46;100701.72;;;11.30;75.38
20825;BME280;10573;50.936;6.978;2023-11-21T02:38:12;100710.34;;;11.25;74.78
20825;BME280;10573;50.936;6.978;2023-11-21T02:40:37;100708.31;;;11.28;74.89
20825;BME280;10573;50.936;6.978;2023-11-21T02:43:03;100708.16;;;11.29;75.06
20825;BME280;10573;50.936;6.978;2023-11-21T02:45:31;100711.19;;;11.26;75.28
20825;BME280;10573;50.936;6.978;2023-11-21T02:47:57;100705.66;;;11.18;75.72
20825;BME280;10573;50.936;6.978;2023-11-21T02:50:23;100711.50;;;11.23;75.76
20825;BME280;10573;50.936;6.978;2023-11-21T02:52:49;100715.03;;;11.05;76.52
20825;BME280;10573;50.936;6.978;2023-11-21T02:55:14;100711.19;;;11.26;75.54
20825;BME280;10573;50.936;6.978;2023-11-21T02:57:40;100707.47;;;11.27;75.64
20825;BME280;10573;50.936;6.978;2023-11-21T03:00:06;100708.88;;;11.31;75.33
20825;BME280;10573;50.936;6.978;2023-11-21T03:02:41;100716.84;;;11.42;75.30
20825;BME280;10573;50.936;6.978;2023-11-21T03:05:06;100717.25;;;11.48;75.37
20825;BME280;10573;50.936;6.978;2023-11-21T03:07:34;100715.94;;;11.52;75.09
20825;BME280;10573;50.936;6.978;2023-11-21T03:09:59;100712.63;;;11.58;74.76
20825;BME280;10573;50.936;6.978;2023-11-21T03:12:24;100714.72;;;11.64;74.41
20825;BME280;10573;50.936;6.978;2023-11-21T03:14:50;100722.22;;;11.62;74.17
20825;BME280;10573;50.936;6.978;2023-11-21T03:17:15;100723.97;;;11.53;74.34
20825;BME280;10573;50.936;6.978;2023-11-21T03:19:41;100733.44;;;11.59;74.51
20825;BME280;10573;50.936;6.978;2023-11-21T03:22:06;100733.72;;;11.56;74.74
20825;BME280;10573;50.936;6.978;2023-11-21T03:24:32;100736.16;;;11.59;74.51
20825;BME280;10573;50.936;6.978;2023-11-21T03:26:57;100735.53;;;11.65;74.48
20825;BME280;10573;50.936;6.978;2023-11-21T03:29:23;100741.00;;;11.65;74.63
20825;BME280;10573;50.936;6.978;2023-11-21T03:31:48;100741.00;;;11.65;74.57
20825;BME280;10573;50.936;6.978;2023-11-21T03:34:27;100742.31;;;11.61;74.63
20825;BME280;10573;50.936;6.978;2023-11-21T03:36:53;100746.38;;;11.57;74.64
20825;BME280;10573;50.936;6.978;2023-11-21T03:39:21;100743.63;;;11.57;74.90
20825;BME280;10573;50.936;6.978;2023-11-21T03:41:47;100744.88;;;11.63;74.54
20825;BME280;10573;50.936;6.978;2023-11-21T03:44:14;100750.91;;;11.66;74.16
20825;BME280;10573;50.936;6.978;2023-11-21T03:46:39;100754.66;;;11.65;74.09
20825;BME280;10573;50.936;6.978;2023-11-21T03:49:05;100764.47;;;11.58;74.10
20825;BME280;10573;50.936;6.978;2023-11-21T03:51:30;100763.84;;;11.64;74.12
20825;BME280;10573;50.936;6.978;2023-11-21T03:53:57;100766.72;;;11.63;73.94
20825;BME280;10573;50.936;6.978;2023-11-21T03:56:23;100770.31;;;11.63;74.02
20825;BME280;10573;50.936;6.978;2023-11-21T03:58:48;100779.56;;;11.52;74.23
20825;BME280;10573;50.936;6.978;2023-11-21T04:01:23;100774.56;;;11.48;74.14
20825;BME280;10573;50.936;6.978;2023-11-21T04:03:50;100777.28;;;11.48;74.32
20825;BME280;10573;50.936;6.978;2023-11-21T04:06:16;100783.63;;;11.38;74.78
20825;BME280;10573;50.936;6.978;2023-11-21T04:08:46;100794.53;;;11.38;75.00
20825;BME280;10573;50.936;6.978;2023-11-21T04:11:12;100792.97;;;11.46;74.54
20825;BME280;10573;50.936;6.978;2023-11-21T04:13:40;100791.13;;;11.36;74.60
20825;BME280;10573;50.936;6.978;2023-11-21T04:16:08;100797.69;;;11.44;74.16
20825;BME280;10573;50.936;6.978;2023-11-21T04:18:36;100801.00;;;11.47;74.73
20825;BME280;10573;50.936;6.978;2023-11-21T04:21:02;100796.22;;;11.21;74.77
20825;BME280;10573;50.936;6.978;2023-11-21T04:23:29;100806.50;;;11.37;74.87
20825;BME280;10573;50.936;6.978;2023-11-21T04:25:54;100803.94;;;11.26;75.01
20825;BME280;10573;50.936;6.978;2023-11-21T04:28:22;100799.03;;;11.30;74.57
20825;BME280;10573;50.936;6.978;2023-11-21T04:30:48;100807.13;;;11.21;74.66
20825;BME280;10573;50.936;6.978;2023-11-21T04:33:13;100800.88;;;11.29;74.86
20825;BME280;10573;50.936;6.978;2023-11-21T04:35:38;100795.78;;;11.16;75.19
20825;BME280;10573;50.936;6.978;2023-11-21T04:38:04;100801.03;;;11.28;75.14
20825;BME280;10573;50.936;6.978;2023-11-21T04:40:29;100793.03;;;11.26;74.58
20825;BME280;10573;50.936;6.978;2023-11-21T04:42:55;100796.47;;;11.28;74.37
20825;BME280;10573;50.936;6.978;2023-11-21T04:45:22;100803.63;;;11.29;74.77
20825;BME280;10573;50.936;6.978;2023-11-21T04:47:47;100804.13;;;11.15;74.87
20825;BME280;10573;50.936;6.978;2023-11-21T04:50:13;100801.19;;;11.26;74.21
20825;BME280;10573;50.936;6.978;2023-11-21T04:52:39;100808.28;;;11.19;74.86
20825;BME280;10573;50.936;6.978;2023-11-21T04:55:05;100810.53;;;11.23;74.81
20825;BME280;10573;50.936;6.978;2023-11-21T04:57:32;100808.97;;;11.21;74.67
20825;BME280;10573;50.936;6.978;2023-11-21T04:59:57;100801.66;;;11.21;74.65
20825;BME280;10573;50.936;6.978;2023-11-21T05:02:23;100815.72;;;11.17;75.05
20825;BME280;10573;50.936;6.978;2023-11-21T05:04:48;100814.88;;;11.16;75.42
20825;BME280;10573;50.936;6.978;2023-11-21T05:07:14;100822.72;;;11.29;74.85
20825;BME280;10573;50.936;6.978;2023-11-21T05:09:43;100821.41;;;11.33;74.62
20825;BME280;10573;50.936;6.978;2023-11-21T05:12:14;100821.81;;;11.38;74.51
20825;BME280;10573;50.936;6.978;2023-11-21T05:14:40;100822.00;;;11.27;74.62
20825;BME280;10573;50.936;6.978;2023-11-21T05:17:05;100825.16;;;11.22;74.86
20825;BME280;10573;50.936;6.978;2023-11-21T05:19:31;100834.50;;;11.20;75.09
20825;BME280;10573;50.936;6.978;2023-11-21T05:21:58;100836.59;;;11.46;74.07
20825;BME280;10573;50.936;6.978;2023-11-21T05:24:24;100838.13;;;11.11;74.59
20825;BME280;10573;50.936;6.978;2023-11-21T05:26:49;100840.25;;;11.17;74.43
20825;BME280;10573;50.936;6.978;2023-11-21T05:29:14;100849.44;;;11.16;74.41
20825;BME280;10573;50.936;6.978;2023-11-21T05:31:40;100853.00;;;11.26;74.29
20825;BME280;10573;50.936;6.978;2023-11-21T05:34:05;100855.47;;;11.19;74.43
20825;BME280;10573;50.936;6.978;2023-11-21T05:36:31;100855.94;;;11.15;74.91
20825;BME280;10573;50.936;6.978;2023-11-21T05:38:56;100858.47;;;11.26;74.51
20825;BME280;10573;50.936;6.978;2023-11-21T05:41:22;100852.66;;;11.01;75.38
20825;BME280;10573;50.936;6.978;2023-11-21T05:43:48;100868.28;;;10.99;75.33
20825;BME280;10573;50.936;6.978;2023-11-21T05:46:13;100869.13;;;11.10;75.04
20825;BME280;10573;50.936;6.978;2023-11-21T05:48:39;100861.91;;;11.18;74.99
20825;BME280;10573;50.936;6.978;2023-11-21T05:51:06;100869.38;;;11.26;75.00
20825;BME280;10573;50.936;6.978;2023-11-21T05:53:32;100868.81;;;11.22;74.71
20825;BME280;10573;50.936;6.978;2023-11-21T05:55:57;100880.03;;;11.10;75.45
20825;BME280;10573;50.936;6.978;2023-11-21T05:58:23;100880.31;;;11.16;75.61
20825;BME280;10573;50.936;6.978;2023-11-21T06:00:49;100886.59;;;11.27;75.12
20825;BME280;10573;50.936;6.978;2023-11-21T06:03:14;100894.03;;;11.34;74.83
20825;BME280;10573;50.936;6.978;2023-11-21T06:05:39;100891.19;;;11.26;74.65
20825;BME280;10573;50.936;6.978;2023-11-21T06:08:05;100901.53;;;11.32;74.55
20825;BME280;10573;50.936;6.978;2023-11-21T06:10:31;100900.38;;;11.35;73.74
20825;BME280;10573;50.936;6.978;2023-11-21T06:12:58;100898.94;;;11.40;73.65
20825;BME280;10573;50.936;6.978;2023-11-21T06:15:24;100908.41;;;11.36;73.16
20825;BME280;10573;50.936;6.978;2023-11-21T06:17:49;100915.88;;;11.34;73.51
20825;BME280;10573;50.936;6.978;2023-11-21T06:20:18;100914.44;;;11.30;73.70
20825;BME280;10573;50.936;6.978;2023-11-21T06:22:47;100913.69;;;11.48;73.57
20825;BME280;10573;50.936;6.978;2023-11-21T06:25:13;100914.41;;;11.40;73.66
20825;BME280;10573;50.936;6.978;2023-11-21T06:27:43;100921.03;;;11.47;73.52
20825;BME280;10573;50.936;6.978;2023-11-21T06:30:16;100918.16;;;11.49;73.52
20825;BME280;10573;50.936;6.978;2023-11-21T06:32:44;100929.34;;;11.46;73.84
20825;BME280;10573;50.936;6.978;2023-11-21T06:35:11;100926.31;;;11.49;73.45
20825;BME280;10573;50.936;6.978;2023-11-21T06:37:37;100933.50;;;11.50;73.82
20825;BME280;10573;50.936;6.978;2023-11-21T06:40:03;100940.53;;;11.42;74.02
20825;BME280;10573;50.936;6.978;2023-11-21T06:42:32;100936.25;;;11.50;73.63
20825;BME280;10573;50.936;6.978;2023-11-21T06:44:58;100940.00;;;11.39;74.09
20825;BME280;10573;50.936;6.978;2023-11-21T06:47:25;100943.69;;;11.48;73.85
20825;BME280;10573;50.936;6.978;2023-11-21T06:49:51;100941.09;;;11.56;73.42
20825;BME280;10573;50.936;6.978;2023-11-21T06:52:17;100953.59;;;11.58;73.46
20825;BME280;10573;50.936;6.978;2023-11-21T06:54:43;100955.50;;;11.48;72.97
20825;BME280;10573;50.936;6.978;2023-11-21T06:57:09;100959.78;;;11.61;72.74
20825;BME280;10573;50.936;6.978;2023-11-21T06:59:34;100958.63;;;11.63;72.83
20825;BME280;10573;50.936;6.978;2023-11-21T07:02:00;100955.59;;;11.66;72.71
20825;BME280;10573;50.936;6.978;2023-11-21T07:04:25;100965.78;;;11.64;72.59
20825;BME280;10573;50.936;6.978;2023-11-21T07:06:51;100971.53;;;11.61;72.46
20825;BME280;10573;50.936;6.978;2023-11-21T07:09:17;100974.72;;;11.56;72.89
20825;BME280;10573;50.936;6.978;2023-11-21T07:11:42;100985.19;;;11.61;72.58
20825;BME280;10573;50.936;6.978;2023-11-21T07:14:08;100981.91;;;11.48;73.26
20825;BME280;10573;50.936;6.978;2023-11-21T07:16:37;100982.59;;;11.59;73.01
20825;BME280;10573;50.936;6.978;2023-11-21T07:19:06;100991.94;;;11.57;72.89
20825;BME280;10573;50.936;6.978;2023-11-21T07:21:36;100986.78;;;11.54;73.24
20825;BME280;10573;50.936;6.978;2023-11-21T07:24:02;101008.03;;;11.40;73.79
20825;BME280;10573;50.936;6.978;2023-11-21T07:26:29;101010.47;;;11.44;73.62
20825;BME280;10573;50.936;6.978;2023-11-21T07:28:54;101013.06;;;11.35;74.20
20825;BME280;10573;50.936;6.978;2023-11-21T07:31:20;101014.06;;;11.34;74.17
20825;BME280;10573;50.936;6.978;2023-11-21T07:33:46;101027.09;;;11.60;73.67
20825;BME280;10573;50.936;6.978;2023-11-21T07:36:13;101025.69;;;11.46;74.13
20825;BME280;10573;50.936;6.978;2023-11-21T07:38:39;101026.41;;;11.38;74.46
20825;BME280;10573;50.936;6.978;2023-11-21T07:41:05;101025.13;;;11.23;74.64
20825;BME280;10573;50.936;6.978;2023-11-21T07:43:30;101036.88;;;11.53;74.10
20825;BME280;10573;50.936;6.978;2023-11-21T07:46:01;101035.91;;;11.54;73.71
20825;BME280;10573;50.936;6.978;2023-11-21T07:48:28;101037.75;;;11.44;74.19
20825;BME280;10573;50.936;6.978;2023-11-21T07:50:54;101042.78;;;11.38;73.95
20825;BME280;10573;50.936;6.978;2023-11-21T07:53:19;101033.56;;;11.69;73.36
20825;BME280;10573;50.936;6.978;2023-11-21T07:55:45;101038.44;;;11.65;73.77
20825;BME280;10573;50.936;6.978;2023-11-21T07:58:12;101040.47;;;11.63;74.20
20825;BME280;10573;50.936;6.978;2023-11-21T08:00:38;101043.66;;;11.68;73.74
20825;BME280;10573;50.936;6.978;2023-11-21T08:03:04;101040.34;;;11.55;73.88
20825;BME280;10573;50.936;6.978;2023-11-21T08:05:31;101046.38;;;11.68;74.07
20825;BME280;10573;50.936;6.978;2023-11-21T08:07:57;101052.38;;;11.42;74.46
20825;BME280;10573;50.936;6.978;2023-11-21T08:10:22;101055.81;;;11.05;75.57
20825;BME280;10573;50.936;6.978;2023-11-21T08:12:47;101059.56;;;11.44;74.68
20825;BME280;10573;50.936;6.978;2023-11-21T08:15:14;101059.44;;;11.65;73.74
20825;BME280;10573;50.936;6.978;2023-11-21T08:17:39;101059.28;;;11.47;74.00
20825;BME280;10573;50.936;6.978;2023-11-21T08:20:06;101062.16;;;11.45;74.10
20825;BME280;10573;50.936;6.978;2023-11-21T08:22:33;101071.50;;;11.62;73.65
20825;BME280;10573;50.936;6.978;2023-11-21T08:24:59;101076.22;;;11.60;74.14
20825;BME280;10573;50.936;6.978;2023-11-21T08:27:25;101087.88;;;11.82;73.64
20825;BME280;10573;50.936;6.978;2023-11-21T08:29:50;101090.88;;;11.79;73.19
20825;BME280;10573;50.936;6.978;2023-11-21T08:32:18;101097.06;;;11.51;74.05
20825;BME280;10573;50.936;6.978;2023-11-21T08:34:43;101097.22;;;11.50;73.98
20825;BME280;10573;50.936;6.978;2023-11-21T08:37:10;101104.84;;;11.66;73.97
20825;BME280;10573;50.936;6.978;2023-11-21T08:39:38;101101.94;;;11.77;73.47
20825;BME280;10573;50.936;6.978;2023-11-21T08:42:04;101101.22;;;11.85;73.29
20825;BME280;10573;50.936;6.978;2023-11-21T08:44:29;101114.00;;;11.94;73.30
20825;BME280;10573;50.936;6.978;2023-11-21T08:46:55;101112.16;;;11.85;73.22
20825;BME280;10573;50.936;6.978;2023-11-21T08:49:21;101107.38;;;11.87;73.13
20825;BME280;10573;50.936;6.978;2023-11-21T08:51:46;101118.03;;;11.80;72.91
20825;BME280;10573;50.936;6.978;2023-11-21T08:54:12;101120.03;;;11.88;72.45
20825;BME280;10573;50.936;6.978;2023-11-21T08:56:37;101128.97;;;11.90;72.68
20825;BME280;10573;50.936;6.978;2023-11-21T08:59:03;101123.34;;;11.72;72.79
20825;BME280;10573;50.936;6.978;2023-11-21T09:01:31;101121.63;;;11.81;72.80
20825;BME280;10573;50.936;6.978;2023-11-21T09:03:58;101132.13;;;11.75;72.90
20825;BME280;10573;50.936;6.978;2023-11-21T09:06:24;101132.56;;;11.81;72.70
20825;BME280;10573;50.936;6.978;2023-11-21T09:08:50;101134.84;;;11.85;72.75
20825;BME280;10573;50.936;6.978;2023-11-21T09:11:15;101128.97;;;11.90;72.58
20825;BME280;10573;50.936;6.978;2023-11-21T09:13:41;101134.28;;;11.82;73.14
20825;BME280;10573;50.936;6.978;2023-11-21T09:16:06;101124.50;;;12.08;72.52
20825;BME280;10573;50.936;6.978;2023-11-21T09:18:32;101130.09;;;12.07;72.58
20825;BME280;10573;50.936;6.978;2023-11-21T09:20:57;101133.41;;;12.11;72.58
20825;BME280;10573;50.936;6.978;2023-11-21T09:23:24;101139.19;;;12.07;72.60
20825;BME280;10573;50.936;6.978;2023-11-21T09:25:49;101141.84;;;12.27;72.33
20825;BME280;10573;50.936;6.978;2023-11-21T09:28:17;101149.34;;;12.15;71.63
20825;BME280;10573;50.936;6.978;2023-11-21T09:30:43;101157.44;;;12.17;72.43
20825;BME280;10573;50.936;6.978;2023-11-21T09:33:08;101158.00;;;12.11;72.25
20825;BME280;10573;50.936;6.978;2023-11-21T09:35:37;101164.91;;;11.95;72.44
20825;BME280;10573;50.936;6.978;2023-11-21T09:38:03;101170.91;;;11.89;73.22
20825;BME280;10573;50.936;6.978;2023-11-21T09:40:31;101163.91;;;12.06;73.13
20825;BME280;10573;50.936;6.978;2023-11-21T09:42:57;101170.47;;;11.93;72.83
20825;BME280;10573;50.936;6.978;2023-11-21T09:45:28;101178.81;;;11.92;73.03
20825;BME280;10573;50.936;6.978;2023-11-21T09:47:57;101182.69;;;11.80;72.92
20825;BME280;10573;50.936;6.978;2023-11-21T09:50:24;101180.69;;;12.11;72.82
20825;BME280;10573;50.936;6.978;2023-11-21T09:55:18;101197.94;;;12.31;71.87
20825;BME280;10573;50.936;6.978;2023-11-21T09:57:47;101191.19;;;12.25;71.99
20825;BME280;10573;50.936;6.978;2023-11-21T10:00:14;101187.03;;;12.21;71.84
20825;BME280;10573;50.936;6.978;2023-11-21T10:02:43;101193.94;;;12.16;71.97
20825;BME280;10573;50.936;6.978;2023-11-21T10:05:08;101186.88;;;12.13;72.29
20825;BME280;10573;50.936;6.978;2023-11-21T10:07:37;101185.56;;;12.27;71.86
20825;BME280;10573;50.936;6.978;2023-11-21T10:10:05;101181.53;;;12.41;71.06
20825;BME280;10573;50.936;6.978;2023-11-21T10:12:33;101176.22;;;12.30;71.52
20825;BME280;10573;50.936;6.978;2023-11-21T10:15:01;101173.78;;;12.46;71.42
20825;BME280;10573;50.936;6.978;2023-11-21T10:17:28;101184.44;;;12.20;71.60
20825;BME280;10573;50.936;6.978;2023-11-21T10:20:02;101186.44;;;12.18;71.70
20825;BME280;10573;50.936;6.978;2023-11-21T10:22:31;101187.00;;;12.41;71.34
20825;BME280;10573;50.936;6.978;2023-11-21T10:24:56;101186.13;;;12.40;70.46
20825;BME280;10573;50.936;6.978;2023-11-21T10:27:22;101190.75;;;12.40;70.46
20825;BME280;10573;50.936;6.978;2023-11-21T10:29:51;101186.97;;;12.51;70.33
20825;BME280;10573;50.936;6.978;2023-11-21T10:32:16;101183.66;;;12.47;70.33
20825;BME280;10573;50.936;6.978;2023-11-21T10:34:42;101188.41;;;12.55;70.27
20825;BME280;10573;50.936;6.978;2023-11-21T10:37:13;101183.25;;;12.52;70.13
20825;BME280;10573;50.936;6.978;2023-11-21T10:39:40;101184.94;;;12.53;70.44
20825;BME280;10573;50.936;6.978;2023-11-21T10:42:09;101193.59;;;12.48;70.57
20825;BME280;10573;50.936;6.978;2023-11-21T10:44:35;101191.25;;;12.63;70.07
20825;BME280;10573;50.936;6.978;2023-11-21T10:47:00;101189.13;;;12.57;69.82
20825;BME280;10573;50.936;6.978;2023-11-21T10:49:27;101196.84;;;12.71;69.96
20825;BME280;10573;50.936;6.978;2023-11-21T10:51:54;101197.72;;;12.62;69.32
20825;BME280;10573;50.936;6.978;2023-11-21T10:54:20;101196.16;;;12.69;69.45
20825;BME280;10573;50.936;6.978;2023-11-21T10:56:48;101199.59;;;12.62;69.52
20825;BME280;10573;50.936;6.978;2023-11-21T10:59:16;101204.03;;;12.72;69.65
20825;BME280;10573;50.936;6.978;2023-11-21T11:01:44;101201.09;;;12.93;68.94
20825;BME280;10573;50.936;6.978;2023-11-21T11:04:11;101204.47;;;12.78;69.29
20825;BME280;10573;50.936;6.978;2023-11-21T11:06:43;101213.25;;;12.71;69.46
20825;BME280;10573;50.936;6.978;2023-11-21T11:09:13;101215.63;;;12.94;69.20
20825;BME280;10573;50.936;6.978;2023-11-21T11:11:42;101211.16;;;12.93;69.00
20825;BME280;10573;50.936;6.978;2023-11-21T11:14:11;101215.63;;;12.94;68.83
20825;BME280;10573;50.936;6.978;2023-11-21T11:16:38;101218.19;;;12.96;68.81
20825;BME280;10573;50.936;6.978;2023-11-21T11:19:06;101218.28;;;12.66;69.51
20825;BME280;10573;50.936;6.978;2023-11-21T11:25:03;101221.19;;;12.55;70.55
20825;BME280;10573;50.936;6.978;2023-11-21T11:27:54;101224.38;;;12.60;70.44
20825;BME280;10573;50.936;6.978;2023-11-21T11:30:39;101221.19;;;12.55;70.82
20825;BME280;10573;50.936;6.978;2023-11-21T11:36:13;101219.66;;;12.42;71.39
20825;BME280;10573;50.936;6.978;2023-11-21T11:38:45;101221.06;;;12.47;71.59
20825;BME280;10573;50.936;6.978;2023-11-21T11:41:11;101222.06;;;12.65;70.77
20825;BME280;10573;50.936;6.978;2023-11-21T11:43:37;101225.53;;;12.48;71.47
20825;BME280;10573;50.936;6.978;2023-11-21T11:46:10;101223.50;;;12.50;71.71
20825;BME280;10573;50.936;6.978;2023-11-21T11:48:39;101217.91;;;12.41;71.98
20825;BME280;10573;50.936;6.978;2023-11-21T11:51:15;101225.78;;;12.64;71.20
20825;BME280;10573;50.936;6.978;2023-11-21T11:53:46;101228.72;;;12.33;71.86
20825;BME280;10573;50.936;6.978;2023-11-21T11:56:28;101235.03;;;12.34;71.96
20825;BME280;10573;50.936;6.978;2023-11-21T11:58:57;101237.94;;;12.13;72.78
20825;BME280;10573;50.936;6.978;2023-11-21T12:01:25;101243.97;;;12.36;72.39
20825;BME280;10573;50.936;6.978;2023-11-21T12:06:45;101234.69;;;12.66;71.15
20825;BME280;10573;50.936;6.978;2023-11-21T12:09:31;101240.44;;;12.83;70.39
20825;BME280;10573;50.936;6.978;2023-11-21T12:11:57;101242.00;;;12.85;70.28
20825;BME280;10573;50.936;6.978;2023-11-21T12:14:23;101245.63;;;12.66;70.74
20825;BME280;10573;50.936;6.978;2023-11-21T12:16:49;101242.84;;;12.86;70.52
20825;BME280;10573;50.936;6.978;2023-11-21T12:19:16;101247.63;;;12.84;69.94
20825;BME280;10573;50.936;6.978;2023-11-21T12:21:42;101248.22;;;12.78;70.22
20825;BME280;10573;50.936;6.978;2023-11-21T12:24:09;101250.28;;;12.36;71.34
20825;BME280;10573;50.936;6.978;2023-11-21T12:26:35;101249.28;;;12.37;71.87
20825;BME280;10573;50.936;6.978;2023-11-21T12:29:04;101263.22;;;12.34;72.24
20825;BME280;10573;50.936;6.978;2023-11-21T12:31:33;101262.50;;;12.32;72.36
20825;BME280;10573;50.936;6.978;2023-11-21T12:34:00;101268.13;;;12.21;72.50
20825;BME280;10573;50.936;6.978;2023-11-21T12:36:26;101260.63;;;12.23;72.69
20825;BME280;10573;50.936;6.978;2023-11-21T12:38:51;101259.16;;;12.58;71.61
20825;BME280;10573;50.936;6.978;2023-11-21T12:41:17;101263.78;;;12.57;71.67
20825;BME280;10573;50.936;6.978;2023-11-21T12:43:43;101259.47;;;12.55;71.32
20825;BME280;10573;50.936;6.978;2023-11-21T12:46:10;101259.19;;;12.48;71.18
20825;BME280;10573;50.936;6.978;2023-11-21T12:48:39;101266.53;;;12.28;72.08
20825;BME280;10573;50.936;6.978;2023-11-21T12:51:09;101271.28;;;12.36;71.27
20825;BME280;10573;50.936;6.978;2023-11-21T12:53:37;101273.88;;;12.37;71.59
20825;BME280;10573;50.936;6.978;2023-11-21T12:56:07;101271.41;;;12.64;70.62
20825;BME280;10573;50.936;6.978;2023-11-21T12:58:38;101273.44;;;12.52;70.77
20825;BME280;10573;50.936;6.978;2023-11-21T13:01:07;101277.31;;;12.20;71.73